Time;durP1;ratioP1;P1;durP2;ratioP2;P2;SDS_P1;SDS_P2;PMS_P1;PMS_P2;Temp;Humidity;BMP_temperature;BMP_pressure;BME280_temperature;BME280_humidity;BME280_pressure;Samples;Min_cycle;Max_cycle;Signal;HPM_P1;HPM_P2
2021/01/22 00:02:24;;;;;;;32.20;18.42;;;;;;;-0.27;92.73;101133.69;1749731;82;20975;-32
2021/01/22 00:04:52;;;;;;;37.00;18.48;;;;;;;-0.28;92.72;101129.41;1749798;82;21494;-32
2021/01/22 00:07:20;;;;;;;45.45;20.23;;;;;;;-0.28;92.68;101128.98;1749672;82;20928;-33
2021/01/22 00:09:48;;;;;;;41.65;19.82;;;;;;;-0.31;92.69;101126.33;1749737;82;20971;-32
2021/01/22 00:12:15;;;;;;;37.03;18.92;;;;;;;-0.32;92.72;101124.59;1749703;82;21309;-32
2021/01/22 00:14:43;;;;;;;40.88;19.55;;;;;;;-0.34;92.74;101120.74;1749644;82;20939;-33
2021/01/22 00:17:12;;;;;;;40.55;19.98;;;;;;;-0.36;92.70;101117.27;1740358;81;21027;-32
2021/01/22 00:19:40;;;;;;;37.25;18.73;;;;;;;-0.37;92.72;101117.20;1736538;82;20916;-32
2021/01/22 00:22:09;;;;;;;34.40;18.85;;;;;;;-0.41;92.75;101123.00;1736478;82;21502;-33
2021/01/22 00:24:37;;;;;;;33.42;18.12;;;;;;;-0.42;92.80;101118.72;1736458;82;21284;-32
2021/01/22 00:27:05;;;;;;;40.25;18.73;;;;;;;-0.42;92.73;101118.72;1736328;82;21067;-32
2021/01/22 00:29:33;;;;;;;46.68;19.45;;;;;;;-0.47;92.79;101116.88;1735991;82;20996;-33
2021/01/22 00:32:01;;;;;;;38.83;18.60;;;;;;;-0.47;92.90;101114.72;1735898;82;21046;-30
2021/01/22 00:34:29;;;;;;;37.13;18.27;;;;;;;-0.48;92.87;101114.26;1735960;82;20916;-34
2021/01/22 00:36:58;;;;;;;30.70;16.87;;;;;;;-0.48;92.89;101106.62;1735944;82;21269;-34
2021/01/22 00:39:26;;;;;;;36.00;17.73;;;;;;;-0.49;92.93;101106.17;1735935;82;20976;-33
2021/01/22 00:41:54;;;;;;;39.48;17.62;;;;;;;-0.52;92.97;101109.88;1735870;82;20975;-32
2021/01/22 00:44:22;;;;;;;41.77;18.95;;;;;;;-0.51;92.96;101108.64;1735980;81;21007;-33
2021/01/22 00:46:50;;;;;;;25.97;14.45;;;;;;;-0.51;92.91;101107.79;1736064;82;20944;-32
2021/01/22 00:49:18;;;;;;;31.05;16.67;;;;;;;-0.51;92.93;101115.42;1735951;82;21342;-31
2021/01/22 00:51:46;;;;;;;32.42;17.20;;;;;;;-0.53;93.04;101110.69;1735980;82;20995;-31
2021/01/22 00:54:14;;;;;;;30.25;16.32;;;;;;;-0.52;93.08;101104.78;1735938;82;21015;-33
2021/01/22 00:56:59;;;;;;;32.08;16.37;;;;;;;-0.51;93.04;101103.97;1715468;83;20987;-31
2021/01/22 00:59:28;;;;;;;30.70;15.68;;;;;;;-0.51;93.08;101101.01;1729668;82;20928;-32
2021/01/22 01:01:56;;;;;;;29.40;14.45;;;;;;;-0.52;93.17;101104.78;1735896;82;21220;-32
2021/01/22 01:04:24;;;;;;;25.88;14.33;;;;;;;-0.50;93.18;101101.50;1735887;82;20975;-32
2021/01/22 01:06:54;;;;;;;22.52;13.75;;;;;;;-0.48;93.12;101102.42;1734729;82;21028;-33
2021/01/22 01:09:22;;;;;;;26.65;13.55;;;;;;;-0.49;93.13;101103.23;1736006;81;21051;-33
2021/01/22 01:11:54;;;;;;;20.85;11.97;;;;;;;-0.50;93.19;101107.86;1733812;82;21008;-32
2021/01/22 01:14:24;;;;;;;19.67;11.55;;;;;;;-0.46;93.23;101105.00;1735299;82;21276;-31
2021/01/22 01:16:52;;;;;;;20.27;11.05;;;;;;;-0.43;93.24;101098.75;1736355;82;20980;-33
2021/01/22 01:19:20;;;;;;;18.65;11.40;;;;;;;-0.42;93.28;101101.76;1735879;82;21008;-33
2021/01/22 01:21:49;;;;;;;19.00;11.33;;;;;;;-0.41;93.31;101095.86;1735884;82;21197;-33
2021/01/22 01:24:17;;;;;;;18.17;10.53;;;;;;;-0.40;93.38;101097.59;1735971;82;21114;-32
2021/01/22 01:26:45;;;;;;;15.13;9.75;;;;;;;-0.38;93.36;101086.21;1735862;82;22725;-33
2021/01/22 01:29:13;;;;;;;16.75;9.70;;;;;;;-0.38;93.42;101084.55;1735862;82;21019;-33
2021/01/22 01:31:41;;;;;;;22.67;10.30;;;;;;;-0.37;93.55;101079.92;1735973;82;21011;-33
2021/01/22 01:34:09;;;;;;;22.13;9.50;;;;;;;-0.34;93.60;101082.58;1735817;81;20920;-33
2021/01/22 01:36:37;;;;;;;19.90;8.90;;;;;;;-0.30;93.60;101080.98;1735849;82;21083;-32
2021/01/22 01:39:05;;;;;;;17.15;8.45;;;;;;;-0.30;93.66;101072.97;1735863;82;21201;-33
2021/01/22 01:41:33;;;;;;;16.77;9.00;;;;;;;-0.27;93.74;101076.42;1735869;82;20950;-32
2021/01/22 01:44:02;;;;;;;11.08;7.97;;;;;;;-0.25;93.87;101066.78;1735932;82;21490;-34
2021/01/22 01:46:30;;;;;;;15.28;9.08;;;;;;;-0.21;93.86;101058.82;1735901;82;20992;-33
2021/01/22 01:48:59;;;;;;;9.38;6.92;;;;;;;-0.17;93.93;101051.75;1735906;82;20928;-33
2021/01/22 01:51:28;;;;;;;21.97;8.73;;;;;;;-0.12;94.05;101050.26;1692122;82;22481;-32
2021/01/22 01:53:56;;;;;;;14.68;7.83;;;;;;;-0.07;94.17;101044.92;1735773;82;20893;-31
2021/01/22 01:56:26;;;;;;;25.65;8.33;;;;;;;-0.05;94.14;101038.59;1735786;82;20976;-33
2021/01/22 01:58:54;;;;;;;27.40;8.20;;;;;;;-0.03;94.22;101039.11;1715153;82;20999;-32
2021/01/22 02:01:22;;;;;;;17.60;7.85;;;;;;;0.01;94.32;101037.55;1735887;82;20987;-33
2021/01/22 02:03:50;;;;;;;13.43;8.08;;;;;;;0.09;94.42;101034.84;1735860;82;21097;-32
2021/01/22 02:06:19;;;;;;;13.28;9.28;;;;;;;0.16;94.45;101029.56;1735855;82;21016;-32
2021/01/22 02:08:47;;;;;;;13.75;9.00;;;;;;;0.22;94.62;101018.69;1735955;82;20968;-31
2021/01/22 02:11:15;;;;;;;16.57;9.28;;;;;;;0.27;94.69;101018.45;1735852;82;21075;-32
2021/01/22 02:13:44;;;;;;;15.70;9.35;;;;;;;0.32;94.71;101016.92;1736003;82;20987;-33
2021/01/22 02:16:11;;;;;;;21.33;9.50;;;;;;;0.37;94.80;101011.56;1715484;82;21573;-33
2021/01/22 02:18:40;;;;;;;25.37;10.98;;;;;;;0.40;94.82;101013.36;1715132;82;20932;-32
2021/01/22 02:21:30;;;;;;;15.35;8.95;;;;;;;0.42;94.89;101009.17;1735814;82;20936;-33
2021/01/22 02:24:17;;;;;;;13.08;8.08;;;;;;;0.47;94.84;101010.17;1735602;82;21458;-32
2021/01/22 02:27:01;;;;;;;15.90;9.80;;;;;;;0.53;94.89;101001.88;1715661;82;20980;-32
2021/01/22 02:29:29;;;;;;;15.63;9.88;;;;;;;0.51;94.85;101008.61;1735879;82;21382;-33
2021/01/22 02:31:57;;;;;;;22.67;13.55;;;;;;;0.51;94.92;101008.17;1691468;82;20964;-33
2021/01/22 02:34:27;;;;;;;23.38;11.18;;;;;;;0.53;94.94;101002.72;1735908;82;21039;-32
2021/01/22 02:36:58;;;;;;;24.05;11.97;;;;;;;0.55;94.86;101007.45;1735889;82;21526;-33
2021/01/22 02:39:29;;;;;;;11.15;7.80;;;;;;;0.52;94.84;101003.97;1735961;82;21424;-32
2021/01/22 02:41:57;;;;;;;15.18;8.35;;;;;;;0.51;94.83;100999.69;1735906;82;22277;-32
2021/01/22 02:44:25;;;;;;;12.23;7.28;;;;;;;0.48;94.79;100997.89;1735745;82;21032;-33
2021/01/22 02:46:53;;;;;;;13.50;7.50;;;;;;;0.51;94.80;101009.45;1735857;82;21578;-33
2021/01/22 02:49:21;;;;;;;13.55;8.45;;;;;;;0.51;94.78;101009.87;1735795;82;21104;-34
2021/01/22 02:51:49;;;;;;;12.88;7.03;;;;;;;0.47;94.77;100993.62;1735904;82;20968;-33
2021/01/22 02:54:17;;;;;;;9.25;6.62;;;;;;;0.48;94.78;100991.52;1735764;82;21200;-33
2021/01/22 02:57:15;;;;;;;10.70;7.65;;;;;;;0.49;94.83;100998.34;1735883;82;21016;-33
2021/01/22 03:00:13;;;;;;;16.93;7.67;;;;;;;0.50;94.85;100994.98;1735813;82;21098;-32
2021/01/22 03:02:57;;;;;;;12.13;7.12;;;;;;;0.52;94.86;100991.23;1735336;82;21371;-33
2021/01/22 03:05:25;;;;;;;11.03;7.70;;;;;;;0.53;94.87;100991.68;1735984;82;21411;-33
2021/01/22 03:07:55;;;;;;;11.68;7.90;;;;;;;0.56;94.84;100989.23;1735945;82;21490;-34
2021/01/22 03:10:23;;;;;;;11.75;7.25;;;;;;;0.57;94.87;100980.77;1735738;82;20992;-33
2021/01/22 03:12:51;;;;;;;10.48;7.87;;;;;;;0.59;94.94;100979.52;1715302;82;21031;-33
2021/01/22 03:15:20;;;;;;;8.90;6.85;;;;;;;0.61;94.93;100987.67;1735874;82;20976;-32
2021/01/22 03:17:48;;;;;;;10.65;7.67;;;;;;;0.64;94.91;100978.84;1735709;82;21111;-33
2021/01/22 03:20:20;;;;;;;10.98;7.33;;;;;;;0.65;94.88;100979.30;1735860;82;21502;-33
2021/01/22 03:22:47;;;;;;;10.25;7.00;;;;;;;0.66;94.92;100972.11;1735815;82;20991;-32
2021/01/22 03:25:16;;;;;;;12.95;7.50;;;;;;;0.70;94.87;100975.63;1735895;82;20992;-33
2021/01/22 03:27:44;;;;;;;16.85;8.40;;;;;;;0.73;94.84;100970.62;1735764;82;21031;-33
2021/01/22 03:30:14;;;;;;;12.03;8.00;;;;;;;0.75;94.90;100971.53;1735940;82;21052;-32
2021/01/22 03:32:42;;;;;;;11.40;7.97;;;;;;;0.79;94.96;100974.62;1735900;82;22268;-35
2021/01/22 03:35:12;;;;;;;10.95;7.72;;;;;;;0.83;94.92;100975.59;1735873;82;20980;-33
2021/01/22 03:37:40;;;;;;;15.23;8.45;;;;;;;0.85;94.91;100967.58;1735845;82;20936;-32
2021/01/22 03:40:09;;;;;;;14.33;8.93;;;;;;;0.86;94.94;100971.86;1735797;82;20928;-32
2021/01/22 03:42:37;;;;;;;22.67;7.78;;;;;;;0.86;94.93;100961.23;1735823;82;21585;-32
2021/01/22 03:45:07;;;;;;;12.28;7.75;;;;;;;0.92;94.96;100954.61;1735822;82;21216;-33
2021/01/22 03:47:35;;;;;;;24.77;9.50;;;;;;;0.97;95.02;100950.50;1735810;82;21007;-34
2021/01/22 03:50:05;;;;;;;15.15;9.75;;;;;;;1.00;95.10;100945.48;1735758;82;21004;-34
2021/01/22 03:52:33;;;;;;;17.85;8.40;;;;;;;1.07;95.06;100966.51;1735899;82;21538;-32
2021/01/22 03:55:01;;;;;;;13.22;9.35;;;;;;;1.10;95.08;100957.67;1735889;82;20905;-33
2021/01/22 03:57:29;;;;;;;12.88;8.80;;;;;;;1.13;95.01;100956.91;1735884;82;21368;-33
2021/01/22 03:59:57;;;;;;;15.48;9.33;;;;;;;1.18;95.03;100960.44;1735756;82;20941;-34
2021/01/22 04:02:25;;;;;;;14.63;9.50;;;;;;;1.21;94.96;100962.23;1735916;82;20956;-33
2021/01/22 04:04:53;;;;;;;16.90;9.85;;;;;;;1.24;94.91;100962.31;1735808;82;20941;-33
2021/01/22 04:07:20;;;;;;;13.98;9.48;;;;;;;1.24;94.90;100967.41;1736131;82;21098;-33
2021/01/22 04:09:49;;;;;;;14.00;9.25;;;;;;;1.27;94.89;100965.82;1736081;82;22822;-33
2021/01/22 04:12:16;;;;;;;14.33;8.80;;;;;;;1.29;94.79;100957.80;1735891;82;21004;-33
2021/01/22 04:14:45;;;;;;;24.63;10.00;;;;;;;1.26;94.66;100947.52;1735929;82;21039;-35
2021/01/22 04:17:13;;;;;;;14.47;9.08;;;;;;;1.27;94.64;100962.39;1736105;81;21004;-34
2021/01/22 04:19:43;;;;;;;23.27;9.28;;;;;;;1.28;94.61;100951.36;1736004;82;21015;-33
2021/01/22 04:22:12;;;;;;;15.70;9.25;;;;;;;1.31;94.60;100956.55;1735903;82;21334;-34
2021/01/22 04:24:42;;;;;;;22.65;11.43;;;;;;;1.29;94.57;100944.16;1735922;82;20940;-33
2021/01/22 04:27:10;;;;;;;14.43;9.00;;;;;;;1.32;94.55;100942.97;1735909;81;20992;-34
2021/01/22 04:29:38;;;;;;;13.30;9.35;;;;;;;1.35;94.51;100946.88;1735866;82;20932;-34
2021/01/22 04:32:07;;;;;;;13.75;9.10;;;;;;;1.36;94.45;100948.60;1736008;82;21459;-33
2021/01/22 04:34:36;;;;;;;14.45;9.38;;;;;;;1.38;94.48;100944.83;1735999;82;21209;-33
2021/01/22 04:37:04;;;;;;;13.43;8.35;;;;;;;1.41;94.40;100948.34;1735833;82;21015;-35
2021/01/22 04:39:32;;;;;;;16.12;10.25;;;;;;;1.40;94.33;100949.56;1735885;82;21050;-35
2021/01/22 04:42:00;;;;;;;16.50;9.10;;;;;;;1.37;94.28;100952.88;1735906;82;20920;-35
2021/01/22 04:44:28;;;;;;;18.67;8.88;;;;;;;1.37;94.23;100959.25;1692028;82;20873;-34
2021/01/22 04:46:57;;;;;;;19.87;9.78;;;;;;;1.38;94.19;100952.05;1735844;82;22758;-33
2021/01/22 04:49:25;;;;;;;16.07;9.03;;;;;;;1.42;94.21;100957.72;1735900;82;21027;-34
2021/01/22 04:51:53;;;;;;;13.68;8.50;;;;;;;1.40;94.18;100947.01;1715258;82;21011;-33
2021/01/22 04:54:25;;;;;;;16.55;10.20;;;;;;;1.38;94.04;100948.23;1735902;82;21012;-33
2021/01/22 04:56:59;;;;;;;15.28;8.68;;;;;;;1.36;93.93;100949.88;1735921;82;21495;-35
2021/01/22 04:59:41;;;;;;;13.03;9.00;;;;;;;1.32;93.88;100935.31;1735971;82;21373;-33
2021/01/22 05:02:10;;;;;;;11.70;7.72;;;;;;;1.31;93.91;100951.44;1735786;82;20988;-33
2021/01/22 05:04:39;;;;;;;14.23;9.25;;;;;;;1.32;93.91;100953.59;1736017;82;20893;-34
2021/01/22 05:07:09;;;;;;;11.40;8.20;;;;;;;1.32;93.86;100947.22;1735889;82;21043;-34
2021/01/22 05:09:38;;;;;;;10.80;7.90;;;;;;;1.28;93.83;100950.09;1735978;82;20928;-32
2021/01/22 05:12:07;;;;;;;9.70;7.10;;;;;;;1.27;93.82;100950.91;1735938;82;21418;-31
2021/01/22 05:14:35;;;;;;;11.50;7.25;;;;;;;1.26;93.72;100950.06;1735902;81;21479;-34
2021/01/22 05:17:13;;;;;;;12.88;7.65;;;;;;;1.21;93.69;100951.59;1735882;82;21081;-32
2021/01/22 05:19:43;;;;;;;8.40;6.42;;;;;;;1.22;93.71;100949.50;1749584;82;21565;-34
2021/01/22 05:22:15;;;;;;;9.10;6.12;;;;;;;1.24;93.65;100959.75;1749951;82;20900;-33
2021/01/22 05:24:43;;;;;;;11.40;7.03;;;;;;;1.22;93.60;100961.41;1749925;82;21347;-33
2021/01/22 05:27:15;;;;;;;11.88;8.10;;;;;;;1.21;93.61;100964.34;1749867;82;20939;-32
2021/01/22 05:29:44;;;;;;;10.58;7.28;;;;;;;1.20;93.60;100966.88;1749930;82;20960;-33
2021/01/22 05:32:29;;;;;;;12.80;7.53;;;;;;;1.18;93.48;100962.98;1722596;82;20963;-33
2021/01/22 05:34:58;;;;;;;9.63;6.53;;;;;;;1.12;93.44;100956.02;1749671;82;20923;-33
2021/01/22 05:37:28;;;;;;;9.48;6.97;;;;;;;1.11;93.41;100964.92;1749884;82;21194;-35
2021/01/22 05:40:12;;;;;;;9.13;6.00;;;;;;;1.10;93.34;100961.49;1749760;82;20991;-34
2021/01/22 05:42:57;;;;;;;8.60;6.80;;;;;;;1.09;93.27;100969.96;1749860;82;21478;-33
2021/01/22 05:45:41;;;;;;;12.70;6.10;;;;;;;1.06;93.28;100966.05;1749851;82;21054;-33
2021/01/22 05:48:26;;;;;;;8.53;5.97;;;;;;;1.07;93.23;100970.33;1749065;82;20884;-34
2021/01/22 05:50:57;;;;;;;7.87;6.12;;;;;;;1.07;93.20;100970.33;1750001;82;21371;-33
2021/01/22 05:53:27;;;;;;;9.63;6.47;;;;;;;1.03;93.17;100969.80;1749881;82;20952;-34
2021/01/22 05:56:10;;;;;;;7.37;5.83;;;;;;;1.07;93.08;100977.98;1749966;82;20995;-34
2021/01/22 05:58:40;;;;;;;7.67;6.47;;;;;;;1.07;92.97;100974.58;1748868;82;20915;-34
2021/01/22 06:01:12;;;;;;;8.95;5.90;;;;;;;1.04;92.88;100973.22;1749802;82;20920;-35
2021/01/22 06:03:51;;;;;;;7.45;5.50;;;;;;;1.00;92.85;100973.53;1749950;82;22266;-34
2021/01/22 06:06:20;;;;;;;6.60;5.28;;;;;;;1.02;92.81;100971.05;1749956;82;20936;-34
2021/01/22 06:08:54;;;;;;;9.00;5.67;;;;;;;1.02;92.71;100970.62;1749888;82;21003;-34
2021/01/22 06:11:28;;;;;;;7.60;5.20;;;;;;;1.01;92.69;100968.89;1749493;82;21022;-35
2021/01/22 06:13:59;;;;;;;9.43;5.95;;;;;;;1.00;92.57;100967.16;1749484;82;20974;-35
2021/01/22 06:16:28;;;;;;;7.37;6.33;;;;;;;1.02;92.51;100968.49;1749133;82;21200;-32
2021/01/22 06:18:59;;;;;;;9.10;6.17;;;;;;;0.99;92.48;100972.66;1742269;81;20940;-33
2021/01/22 06:21:50;;;;;;;10.68;6.83;;;;;;;0.98;92.43;100970.08;1735969;82;21059;-33
2021/01/22 06:24:19;;;;;;;9.75;5.53;;;;;;;1.05;92.30;100959.23;1735958;82;20948;-34
2021/01/22 06:26:47;;;;;;;9.63;6.40;;;;;;;1.02;92.19;100956.59;1735886;82;20987;-33
2021/01/22 06:29:15;;;;;;;24.45;8.78;;;;;;;1.00;92.13;100961.63;1715388;82;21205;-32
2021/01/22 06:31:43;;;;;;;15.13;9.90;;;;;;;0.99;92.04;100962.45;1691952;82;20976;-34
2021/01/22 06:34:11;;;;;;;7.97;5.28;;;;;;;1.03;91.98;100955.77;1715185;82;20987;-33
2021/01/22 06:36:42;;;;;;;8.75;7.15;;;;;;;1.06;91.87;100957.12;1715418;82;20928;-34
2021/01/22 06:39:12;;;;;;;12.63;7.50;;;;;;;1.04;91.73;100960.05;1735787;82;20957;-33
2021/01/22 06:41:41;;;;;;;8.20;5.72;;;;;;;1.03;91.67;100950.67;1735909;82;21427;-34
2021/01/22 06:44:11;;;;;;;5.03;4.35;;;;;;;1.06;91.61;100953.30;1735769;82;20897;-34
2021/01/22 06:46:42;;;;;;;12.50;5.03;;;;;;;1.11;91.54;100958.55;1735861;82;20971;-33
2021/01/22 06:49:10;;;;;;;6.15;5.25;;;;;;;1.10;91.51;100960.22;1715099;82;20916;-33
2021/01/22 06:51:39;;;;;;;7.67;5.87;;;;;;;1.10;91.54;100958.94;1735900;82;20909;-33
2021/01/22 06:54:21;;;;;;;10.08;5.08;;;;;;;1.13;91.39;100956.91;1735840;82;21211;-34
2021/01/22 06:56:57;;;;;;;6.50;5.47;;;;;;;1.15;91.21;100951.43;1735803;82;21027;-33
2021/01/22 06:59:38;;;;;;;9.78;5.53;;;;;;;1.14;91.08;100951.86;1735842;82;21071;-33
2021/01/22 07:02:39;;;;;;;7.28;5.35;;;;;;;1.17;91.09;100952.34;1735816;81;21203;-33
2021/01/22 07:05:35;;;;;;;6.58;5.20;;;;;;;1.23;90.95;100945.27;1735817;82;20873;-33
2021/01/22 07:08:05;;;;;;;5.78;5.17;;;;;;;1.28;90.82;100949.69;1735799;81;22164;-32
2021/01/22 07:10:56;;;;;;;6.40;5.28;;;;;;;1.31;90.64;100950.17;1735803;82;21019;-34
2021/01/22 07:13:33;;;;;;;10.30;5.22;;;;;;;1.33;90.32;100937.47;1735824;81;20983;-34
2021/01/22 07:16:07;;;;;;;5.75;5.00;;;;;;;1.38;90.25;100945.67;1732697;82;20976;-32
2021/01/22 07:18:51;;;;;;;6.55;5.50;;;;;;;1.41;90.05;100941.96;1735687;81;21450;-33
2021/01/22 07:21:37;;;;;;;7.15;4.97;;;;;;;1.48;90.04;100938.29;1734599;82;21174;-33
2021/01/22 07:24:08;;;;;;;5.45;4.78;;;;;;;1.57;89.71;100934.69;1735692;82;20983;-34
2021/01/22 07:26:40;;;;;;;6.95;5.62;;;;;;;1.63;89.44;100933.57;1734679;82;20999;-34
2021/01/22 07:29:18;;;;;;;6.90;5.80;;;;;;;1.64;89.30;100920.41;1733425;82;21023;-35
2021/01/22 07:32:06;;;;;;;6.90;5.05;;;;;;;1.70;89.12;100932.92;1735816;82;20999;-34
2021/01/22 07:34:50;;;;;;;8.63;4.20;;;;;;;1.80;88.78;100926.77;1735813;82;21201;-33
2021/01/22 07:37:24;;;;;;;5.60;5.10;;;;;;;1.81;88.17;100924.27;1735731;82;20992;-33
2021/01/22 07:39:54;;;;;;;8.73;5.58;;;;;;;1.80;87.73;100927.64;1735977;82;21145;-34
2021/01/22 07:42:24;;;;;;;6.45;4.97;;;;;;;1.84;87.82;100936.22;1736005;82;21019;-33
2021/01/22 07:44:54;;;;;;;11.95;5.70;;;;;;;1.87;87.19;100935.02;1735940;82;20976;-33
2021/01/22 07:47:30;;;;;;;17.23;6.30;;;;;;;1.84;86.90;100930.72;1736105;82;21269;-35
2021/01/22 07:50:01;;;;;;;5.70;5.10;;;;;;;1.88;86.86;100933.34;1735935;82;20944;-34
2021/01/22 07:52:37;;;;;;;7.72;5.25;;;;;;;1.92;86.57;100935.15;1735957;82;20916;-35
2021/01/22 07:55:15;;;;;;;7.87;5.62;;;;;;;1.97;86.41;100931.89;1716339;82;21007;-35
2021/01/22 07:57:45;;;;;;;5.65;4.92;;;;;;;2.05;85.97;100923.54;1716967;82;20980;-35
2021/01/22 08:00:15;;;;;;;6.62;5.30;;;;;;;2.09;85.86;100925.34;1735824;82;21380;-34
2021/01/22 08:02:56;;;;;;;17.32;6.83;;;;;;;2.11;85.58;100927.11;1735968;81;21523;-34
2021/01/22 08:05:32;;;;;;;13.55;5.55;;;;;;;2.14;85.43;100928.45;1735964;82;20932;-34
2021/01/22 08:08:01;;;;;;;7.78;5.45;;;;;;;2.23;85.43;100938.04;1736019;82;20936;-35
2021/01/22 08:10:30;;;;;;;6.20;5.25;;;;;;;2.24;85.11;100935.05;1735994;82;20928;-34
2021/01/22 08:12:59;;;;;;;6.22;4.97;;;;;;;2.26;85.00;100941.06;1736011;82;22135;-35
2021/01/22 08:15:29;;;;;;;6.60;5.25;;;;;;;2.23;84.78;100942.27;1735924;82;21444;-34
2021/01/22 08:17:57;;;;;;;5.70;4.87;;;;;;;2.23;84.70;100944.42;1735965;81;20908;-33
2021/01/22 08:20:28;;;;;;;6.62;5.22;;;;;;;2.15;84.66;100936.57;1735880;81;21007;-34
2021/01/22 08:22:57;;;;;;;7.47;5.55;;;;;;;2.10;84.89;100940.72;1735987;82;20987;-34
2021/01/22 08:25:35;;;;;;;6.37;5.65;;;;;;;2.09;84.88;100942.82;1736012;82;21369;-33
2021/01/22 08:28:07;;;;;;;19.55;9.53;;;;;;;2.07;84.91;100937.20;1735950;82;21024;-33
2021/01/22 08:30:36;;;;;;;15.28;8.18;;;;;;;1.97;85.22;100946.33;1736011;82;21495;-34
2021/01/22 08:33:05;;;;;;;26.95;15.03;;;;;;;1.91;85.49;100940.69;1735903;82;21257;-33
2021/01/22 08:35:36;;;;;;;10.00;6.20;;;;;;;1.91;85.59;100939.41;1735931;82;21019;-34
2021/01/22 08:38:04;;;;;;;7.60;5.35;;;;;;;1.92;85.87;100936.03;1735931;82;21203;-33
2021/01/22 08:40:40;;;;;;;12.05;5.30;;;;;;;1.91;86.10;100933.02;1735866;82;20948;-35
2021/01/22 08:43:09;;;;;;;5.72;4.70;;;;;;;1.86;86.40;100934.17;1735716;81;20932;-34
2021/01/22 08:45:40;;;;;;;10.40;5.75;;;;;;;1.86;86.51;100935.84;1735913;82;21470;-35
2021/01/22 08:48:10;;;;;;;7.67;5.72;;;;;;;1.85;86.68;100932.45;1735932;82;20920;-35
2021/01/22 08:50:39;;;;;;;6.45;5.80;;;;;;;1.84;86.85;100919.63;1735971;82;21217;-34
2021/01/22 08:53:10;;;;;;;5.33;4.83;;;;;;;1.87;86.90;100922.25;1715443;82;21447;-35
2021/01/22 08:55:38;;;;;;;5.83;5.28;;;;;;;1.86;87.05;100921.41;1735897;82;21007;-34
2021/01/22 08:58:10;;;;;;;6.50;5.83;;;;;;;1.92;87.14;100926.20;1735846;82;21015;-35
2021/01/22 09:00:39;;;;;;;10.23;6.50;;;;;;;1.90;87.21;100927.47;1735955;82;20908;-34
2021/01/22 09:03:21;;;;;;;7.65;4.92;;;;;;;1.97;87.04;100913.13;1735866;82;21363;-35
2021/01/22 09:05:50;;;;;;;6.60;5.97;;;;;;;1.92;87.22;100918.15;1587886;82;81238;-35
2021/01/22 09:08:19;;;;;;;6.72;6.00;;;;;;;1.93;87.32;100914.77;1564629;91;21019;-37
2021/01/22 09:10:47;;;;;;;7.45;5.78;;;;;;;1.92;87.30;100914.32;1564549;91;20983;-33
2021/01/22 09:13:23;;;;;;;8.75;6.45;;;;;;;1.97;87.35;100915.29;1564621;91;21087;-33
2021/01/22 09:16:05;;;;;;;;;;;;;;;2.02;87.23;100915.37;1566959;91;21383;-37
2021/01/22 09:18:33;;;;;;;10.32;5.53;;;;;;;2.07;87.10;100914.22;1509667;94;20169;-34
2021/01/22 09:21:06;;;;;;;6.60;4.40;;;;;;;2.06;86.79;100913.38;1525028;94;20985;-34
2021/01/22 09:23:38;;;;;;;5.55;4.97;;;;;;;2.07;86.75;100907.84;1525105;94;21088;-34
2021/01/22 09:26:06;;;;;;;14.65;5.92;;;;;;;2.07;86.65;100901.05;1525169;92;21036;-35
2021/01/22 09:28:34;;;;;;;7.65;5.35;;;;;;;2.09;86.61;100910.02;1525110;94;21187;-34
2021/01/22 09:31:02;;;;;;;6.12;5.15;;;;;;;2.18;86.49;100908.97;1512207;94;21718;-35
2021/01/22 09:33:31;;;;;;;7.25;5.80;;;;;;;2.18;86.35;100896.20;1525236;92;21014;-34
2021/01/22 09:36:00;;;;;;;10.65;6.08;;;;;;;2.14;86.35;100899.09;1525104;92;21010;-33
2021/01/22 09:38:29;;;;;;;6.95;5.80;;;;;;;2.14;86.42;100902.03;1525147;94;21001;-34
2021/01/22 09:40:57;;;;;;;6.87;5.47;;;;;;;2.19;86.33;100891.94;1525179;94;21539;-34
2021/01/22 09:43:25;;;;;;;7.40;5.78;;;;;;;2.24;86.22;100895.45;1525100;94;21068;-33
2021/01/22 09:45:57;;;;;;;17.25;7.05;;;;;;;2.24;86.21;100886.11;1525069;94;21605;-33
2021/01/22 09:48:25;;;;;;;7.58;5.33;;;;;;;2.23;86.22;100888.22;1525116;94;21115;-33
2021/01/22 09:50:53;;;;;;;5.55;5.05;;;;;;;2.28;86.11;100880.67;1525046;94;21009;-33
2021/01/22 09:53:23;;;;;;;8.88;6.05;;;;;;;2.29;86.11;100887.07;1525148;94;21479;-33
2021/01/22 09:55:52;;;;;;;11.93;6.87;;;;;;;2.29;86.17;100883.67;1524983;92;21157;-33
2021/01/22 09:58:20;;;;;;;7.60;6.12;;;;;;;2.29;86.14;100879.41;1525044;94;20997;-35
2021/01/22 10:00:49;;;;;;;8.48;5.97;;;;;;;2.38;86.07;100876.59;1525065;92;21065;-33
2021/01/22 10:03:17;;;;;;;8.05;6.37;;;;;;;2.42;85.96;100875.44;1525061;94;21049;-33
2021/01/22 10:05:45;;;;;;;7.10;5.70;;;;;;;2.45;85.85;100868.26;1525134;94;21406;-36
2021/01/22 10:08:15;;;;;;;5.33;4.87;;;;;;;2.48;85.79;100873.44;1525017;94;21117;-34
2021/01/22 10:10:45;;;;;;;7.83;5.80;;;;;;;2.55;85.63;100861.66;1525179;94;21036;-35
2021/01/22 10:13:14;;;;;;;6.10;5.47;;;;;;;2.60;85.34;100865.16;1525015;93;21623;-35
2021/01/22 10:15:45;;;;;;;6.92;5.12;;;;;;;2.62;85.28;100857.11;1525144;94;21014;-34
2021/01/22 10:18:13;;;;;;;7.62;5.60;;;;;;;2.59;85.22;100865.56;1511830;94;21195;-34
2021/01/22 10:20:42;;;;;;;7.00;4.72;;;;;;;2.61;85.10;100859.22;1525066;94;21279;-35
2021/01/22 10:23:10;;;;;;;7.70;5.58;;;;;;;2.64;85.11;100849.45;1525086;92;21001;-36
2021/01/22 10:25:39;;;;;;;7.85;5.72;;;;;;;2.65;85.08;100848.62;1525074;94;20982;-34
2021/01/22 10:28:08;;;;;;;7.55;5.58;;;;;;;2.66;85.03;100837.59;1525175;92;20993;-34
2021/01/22 10:30:36;;;;;;;6.15;5.05;;;;;;;2.75;84.82;100836.48;1525088;94;21232;-34
2021/01/22 10:33:05;;;;;;;6.53;5.55;;;;;;;2.79;84.73;100825.92;1524966;94;21028;-35
2021/01/22 10:35:35;;;;;;;6.60;5.85;;;;;;;2.89;84.03;100818.85;1525033;94;21048;-36
2021/01/22 10:38:05;;;;;;;8.18;5.37;;;;;;;2.89;84.03;100818.85;1525000;94;21072;-34
2021/01/22 10:40:35;;;;;;;7.85;5.22;;;;;;;3.00;84.27;100816.50;1525130;92;21044;-36
2021/01/22 10:43:03;;;;;;;6.33;5.25;;;;;;;3.07;83.99;100818.33;1525062;94;21219;-34
2021/01/22 10:45:32;;;;;;;12.00;6.55;;;;;;;3.08;83.58;100811.53;1525082;94;21143;-34
2021/01/22 10:47:59;;;;;;;11.60;5.53;;;;;;;3.18;83.15;100804.89;1525069;94;21072;-34
2021/01/22 10:50:28;;;;;;;8.60;5.20;;;;;;;3.18;83.15;100804.89;1525078;94;20957;-36
2021/01/22 10:52:56;;;;;;;8.98;6.15;;;;;;;3.19;82.63;100802.34;1525090;94;21062;-34
2021/01/22 10:55:24;;;;;;;8.28;5.90;;;;;;;3.19;82.63;100802.34;1525021;94;22763;-34
2021/01/22 10:57:52;;;;;;;8.05;5.12;;;;;;;3.19;82.72;100802.77;1524975;94;21152;-34
2021/01/22 11:00:22;;;;;;;8.83;5.83;;;;;;;3.26;82.60;100793.08;1525181;93;21078;-33
2021/01/22 11:02:50;;;;;;;6.50;5.45;;;;;;;3.21;82.52;100797.27;1525052;94;21492;-35
2021/01/22 11:05:19;;;;;;;9.30;5.97;;;;;;;3.16;82.68;100794.20;1525095;94;21073;-35
2021/01/22 11:07:46;;;;;;;7.97;5.83;;;;;;;3.12;82.70;100786.45;1525096;92;21406;-34
2021/01/22 11:10:16;;;;;;;6.87;5.75;;;;;;;3.12;82.75;100781.33;1525005;94;21048;-35
2021/01/22 11:12:43;;;;;;;8.43;6.30;;;;;;;3.13;82.83;100790.29;1525155;93;21002;-34
2021/01/22 11:15:13;;;;;;;9.30;6.33;;;;;;;3.11;82.89;100775.33;1525056;92;21319;-34
2021/01/22 11:17:41;;;;;;;7.33;5.90;;;;;;;3.10;83.00;100775.33;1525109;92;21037;-33
2021/01/22 11:20:12;;;;;;;9.45;6.28;;;;;;;3.15;83.08;100766.02;1528924;93;22402;-33
2021/01/22 11:22:40;;;;;;;11.73;6.12;;;;;;;3.16;83.10;100762.23;1577886;91;21133;-34
2021/01/22 11:25:09;;;;;;;9.40;6.37;;;;;;;3.22;83.01;100763.16;1577822;91;21090;-33
2021/01/22 11:27:37;;;;;;;7.17;5.45;;;;;;;3.22;82.75;100769.56;1577865;91;20986;-35
2021/01/22 11:30:06;;;;;;;6.35;5.62;;;;;;;3.21;82.76;100762.72;1577875;91;21042;-35
2021/01/22 11:32:33;;;;;;;9.18;6.40;;;;;;;3.19;82.87;100760.55;1577843;91;21396;-34
2021/01/22 11:36:06;;;;;;;12.40;6.92;;;;;;;3.21;82.96;100772.95;1777080;79;23249;-34
2021/01/22 11:38:34;;;;;;;10.28;6.03;;;;;;;3.16;82.95;100762.23;1749881;82;20919;-35
2021/01/22 11:41:03;;;;;;;8.13;6.33;;;;;;;3.19;82.93;100761.40;1749817;82;22220;-34
2021/01/22 11:43:31;;;;;;;13.65;7.08;;;;;;;3.14;82.98;100757.47;1749756;82;21057;-33
2021/01/22 11:46:00;;;;;;;11.65;7.35;;;;;;;3.12;83.05;100761.70;1692954;82;20975;-33